createdAt,value
2018-11-12T00:01:04.939Z,3.30
2018-11-12T00:03:32.121Z,2.73
2018-11-12T00:05:59.282Z,2.90
2018-11-12T00:08:26.473Z,2.77
2018-11-12T00:10:53.644Z,2.67
2018-11-12T00:13:20.814Z,2.90
2018-11-12T00:15:47.975Z,2.70
2018-11-12T00:18:15.175Z,2.50
2018-11-12T00:20:42.335Z,2.63
2018-11-12T00:23:09.528Z,2.80
2018-11-12T00:25:36.684Z,2.73
2018-11-12T00:28:03.862Z,2.77
2018-11-12T00:30:31.051Z,2.93
2018-11-12T00:32:58.237Z,2.47
2018-11-12T00:35:25.443Z,2.47
2018-11-12T00:37:52.618Z,2.20
2018-11-12T00:40:19.774Z,2.70
2018-11-12T00:42:47.327Z,3.20
2018-11-12T00:45:14.875Z,2.77
2018-11-12T00:47:42.358Z,2.83
2018-11-12T00:50:12.754Z,3.00
2018-11-12T00:52:40.145Z,2.40
2018-11-12T00:55:07.967Z,3.80
2018-11-12T00:57:35.157Z,3.07
2018-11-12T01:00:02.316Z,2.80
2018-11-12T01:02:29.486Z,2.43
2018-11-12T01:04:56.679Z,2.87
2018-11-12T01:07:23.867Z,2.60
2018-11-12T01:09:51.023Z,2.30
2018-11-12T01:12:18.210Z,2.80
2018-11-12T01:14:45.368Z,2.60
2018-11-12T01:17:12.522Z,3.60
2018-11-12T01:19:39.707Z,2.70
2018-11-12T01:22:06.910Z,2.70
2018-11-12T01:24:34.065Z,3.10
2018-11-12T01:27:01.223Z,2.77
2018-11-12T01:29:28.406Z,2.97
2018-11-12T01:31:55.570Z,3.27
2018-11-12T01:34:22.758Z,2.90
2018-11-12T01:36:49.957Z,2.70
2018-11-12T01:39:18.174Z,2.90
2018-11-12T01:41:45.358Z,2.70
2018-11-12T01:44:12.509Z,2.50
2018-11-12T01:46:39.690Z,2.77
2018-11-12T01:49:06.910Z,2.50
2018-11-12T01:51:34.062Z,2.30
2018-11-12T01:54:01.483Z,3.30
2018-11-12T01:56:28.799Z,2.50
2018-11-12T01:58:56.002Z,2.30
2018-11-12T02:01:23.149Z,2.40
2018-11-12T02:03:50.326Z,2.30
2018-11-12T02:06:17.483Z,2.30
2018-11-12T02:08:44.767Z,2.40
2018-11-12T02:11:11.875Z,2.30
2018-11-12T02:13:39.051Z,2.30
2018-11-12T02:16:06.896Z,2.60
2018-11-12T02:18:34.050Z,2.43
2018-11-12T02:21:01.634Z,2.30
2018-11-12T02:23:28.790Z,2.00
2018-11-12T02:25:55.958Z,2.20
2018-11-12T02:28:23.126Z,2.40
2018-11-12T02:30:50.305Z,2.07
2018-11-12T02:33:18.331Z,2.30
2018-11-12T02:35:45.422Z,2.60
2018-11-12T02:38:12.629Z,2.00
2018-11-12T02:40:40.017Z,2.23
2018-11-12T02:43:07.454Z,2.30
2018-11-12T02:45:34.634Z,2.10
2018-11-12T02:48:02.667Z,2.50
2018-11-12T02:50:29.830Z,2.20
2018-11-12T02:52:57.011Z,2.83
2018-11-12T02:55:24.190Z,2.43
2018-11-12T02:57:51.351Z,2.40
2018-11-12T03:00:20.066Z,2.60
2018-11-12T03:02:47.256Z,2.40
2018-11-12T03:05:14.587Z,2.43
2018-11-12T03:07:42.126Z,2.50
2018-11-12T03:10:10.076Z,2.87
2018-11-12T03:12:37.266Z,2.70
2018-11-12T03:15:05.398Z,2.93
2018-11-12T03:17:32.615Z,3.23
2018-11-12T03:19:59.786Z,3.10
2018-11-12T03:22:27.028Z,3.13
2018-11-12T03:24:54.134Z,3.53
2018-11-12T03:27:21.341Z,3.60
2018-11-12T03:29:48.498Z,3.60
2018-11-12T03:32:15.663Z,3.40
2018-11-12T03:34:42.841Z,3.67
2018-11-12T03:37:09.995Z,3.20
2018-11-12T03:39:37.195Z,3.50
2018-11-12T03:42:04.571Z,3.67
2018-11-12T03:44:31.715Z,3.47
2018-11-12T03:46:58.895Z,3.90
2018-11-12T03:49:26.042Z,3.37
2018-11-12T03:51:53.255Z,3.90
2018-11-12T03:54:20.405Z,3.50
2018-11-12T03:56:47.628Z,3.60
2018-11-12T03:59:14.782Z,3.97
2018-11-12T04:01:45.031Z,3.07
2018-11-12T04:04:12.939Z,3.10
2018-11-12T04:06:40.127Z,3.50
2018-11-12T04:09:07.767Z,3.10
2018-11-12T04:11:35.200Z,3.20
2018-11-12T04:14:02.642Z,3.40
2018-11-12T04:16:29.799Z,3.63
2018-11-12T04:18:56.984Z,3.53
2018-11-12T04:21:24.146Z,3.27
2018-11-12T04:23:51.323Z,3.13
2018-11-12T04:26:18.507Z,3.80
2018-11-12T04:28:45.677Z,2.83
2018-11-12T04:31:12.875Z,3.50
2018-11-12T04:33:40.051Z,2.87
2018-11-12T04:36:07.274Z,3.43
2018-11-12T04:38:34.429Z,2.90
2018-11-12T04:41:02.438Z,2.80
2018-11-12T04:43:29.623Z,2.80
2018-11-12T04:45:56.794Z,2.47
2018-11-12T04:48:23.962Z,2.40
2018-11-12T04:50:51.149Z,2.47
2018-11-12T04:53:18.291Z,2.63
2018-11-12T04:55:45.456Z,2.40
2018-11-12T04:58:12.623Z,2.80
2018-11-12T05:00:39.782Z,2.23
2018-11-12T05:03:06.966Z,2.40
2018-11-12T05:05:34.121Z,2.63
2018-11-12T05:08:01.298Z,2.13
2018-11-12T05:10:28.482Z,2.87
2018-11-12T05:12:55.937Z,2.63
2018-11-12T05:15:24.016Z,2.20
2018-11-12T05:17:51.221Z,2.37
2018-11-12T05:20:20.499Z,2.30
2018-11-12T05:22:47.686Z,2.40
2018-11-12T05:25:14.859Z,2.40
2018-11-12T05:27:42.038Z,2.60
2018-11-12T05:30:11.094Z,2.40
2018-11-12T05:32:38.288Z,2.33
2018-11-12T05:35:05.712Z,2.00
2018-11-12T05:37:33.004Z,2.70
2018-11-12T05:40:00.160Z,2.27
2018-11-12T05:42:27.325Z,2.37
2018-11-12T05:44:54.550Z,2.80
2018-11-12T05:47:21.679Z,2.43
2018-11-12T05:49:48.858Z,3.10
2018-11-12T05:52:16.075Z,2.40
2018-11-12T05:54:43.253Z,2.27
2018-11-12T05:57:10.395Z,2.60
2018-11-12T05:59:37.579Z,2.43
2018-11-12T06:02:04.866Z,2.50
2018-11-12T06:04:32.052Z,2.60
2018-11-12T06:06:59.194Z,3.00
2018-11-12T06:09:26.375Z,2.57
2018-11-12T06:11:53.527Z,2.33
2018-11-12T06:14:20.694Z,2.37
2018-11-12T06:16:47.842Z,2.10
2018-11-12T06:19:15.018Z,2.50
2018-11-12T06:21:42.190Z,3.10
2018-11-12T06:24:09.367Z,2.70
2018-11-12T06:26:36.514Z,2.40
2018-11-12T06:29:03.684Z,2.10
2018-11-12T06:31:30.843Z,2.80
2018-11-12T06:33:58.031Z,2.90
2018-11-12T06:36:25.202Z,3.00
2018-11-12T06:38:52.872Z,2.53
2018-11-12T06:41:20.067Z,2.60
2018-11-12T06:43:47.219Z,2.90
2018-11-12T06:46:14.405Z,2.70
2018-11-12T06:48:41.596Z,3.00
2018-11-12T06:51:08.800Z,3.07
2018-11-12T06:53:36.003Z,2.47
2018-11-12T06:56:03.155Z,2.57
2018-11-12T06:58:30.345Z,2.70
2018-11-12T07:00:57.597Z,2.80
2018-11-12T07:03:24.677Z,2.67
2018-11-12T07:05:51.873Z,2.80
2018-11-12T07:08:19.033Z,2.97
2018-11-12T07:10:46.235Z,2.77
2018-11-12T07:13:13.425Z,2.80
2018-11-12T07:15:40.587Z,2.80
2018-11-12T07:18:07.769Z,2.40
2018-11-12T07:20:34.951Z,2.50
2018-11-12T07:23:02.463Z,2.50
2018-11-12T07:25:30.386Z,2.50
2018-11-12T07:27:57.644Z,2.90
2018-11-12T07:30:25.907Z,2.70
2018-11-12T07:32:54.327Z,2.80
2018-11-12T07:35:21.846Z,2.50
2018-11-12T07:37:50.423Z,2.50
2018-11-12T07:40:18.048Z,2.33
2018-11-12T07:42:46.248Z,2.13
2018-11-12T07:45:15.628Z,2.43
2018-11-12T07:47:43.879Z,1.93
2018-11-12T07:50:12.505Z,2.30
2018-11-12T07:52:39.902Z,2.20
2018-11-12T07:55:08.080Z,2.37
2018-11-12T07:57:35.291Z,2.37
2018-11-12T08:00:02.819Z,1.90
2018-11-12T08:02:29.986Z,2.30
2018-11-12T08:04:57.158Z,2.17
2018-11-12T08:07:24.358Z,2.20
2018-11-12T08:09:51.519Z,2.20
2018-11-12T08:12:18.696Z,2.20
2018-11-12T08:14:45.865Z,2.27
2018-11-12T08:17:13.053Z,2.40
2018-11-12T08:19:40.215Z,2.30
2018-11-12T08:22:07.387Z,2.20
2018-11-12T08:24:34.567Z,2.17
2018-11-12T08:27:02.175Z,1.93
2018-11-12T08:29:29.379Z,2.47
2018-11-12T08:31:56.587Z,2.03
2018-11-12T08:34:23.815Z,2.40
2018-11-12T08:36:50.964Z,2.40
2018-11-12T08:39:18.239Z,2.07
2018-11-12T08:41:45.320Z,2.10
2018-11-12T08:44:12.498Z,2.37
2018-11-12T08:46:39.658Z,1.97
2018-11-12T08:49:07.156Z,2.00
2018-11-12T08:51:34.276Z,2.03
2018-11-12T08:54:01.779Z,2.00
2018-11-12T08:56:28.951Z,2.23
2018-11-12T08:58:56.144Z,1.87
2018-11-12T09:01:23.295Z,2.00
2018-11-12T09:03:50.491Z,2.07
2018-11-12T09:06:17.655Z,1.53
2018-11-12T09:08:44.836Z,2.27
2018-11-12T09:11:12.011Z,2.07
2018-11-12T09:13:39.203Z,1.80
2018-11-12T09:16:06.379Z,2.17
2018-11-12T09:18:33.530Z,2.73
2018-11-12T09:21:01.658Z,2.10
2018-11-12T09:23:28.848Z,2.30
2018-11-12T09:25:56.002Z,1.90
2018-11-12T09:28:23.191Z,2.10
2018-11-12T09:30:51.961Z,2.00
2018-11-12T09:33:17.571Z,2.13
2018-11-12T09:35:44.729Z,2.10
2018-11-12T09:38:11.978Z,1.67
2018-11-12T09:40:39.551Z,2.00
2018-11-12T09:43:06.923Z,2.20
2018-11-12T09:45:34.257Z,1.80
2018-11-12T09:48:01.516Z,2.10
2018-11-12T09:50:29.168Z,2.17
2018-11-12T09:52:57.299Z,1.63
2018-11-12T09:55:25.374Z,1.97
2018-11-12T09:57:55.161Z,2.20
2018-11-12T10:00:22.516Z,2.00
2018-11-12T10:02:50.715Z,1.73
2018-11-12T10:05:18.711Z,1.90
2018-11-12T10:07:47.568Z,1.97
2018-11-12T10:10:18.619Z,2.23
2018-11-12T10:12:45.657Z,2.07
2018-11-12T10:15:12.878Z,2.27
2018-11-12T10:17:40.372Z,2.00
2018-11-12T10:20:05.218Z,2.23
2018-11-12T10:22:32.451Z,2.17
2018-11-12T10:24:59.640Z,2.20
2018-11-12T10:27:26.844Z,1.80
2018-11-12T10:29:54.013Z,2.23
2018-11-12T10:32:21.380Z,1.87
2018-11-12T10:34:49.290Z,1.83
2018-11-12T10:37:16.621Z,1.90
2018-11-12T10:39:43.806Z,2.37
2018-11-12T10:42:10.962Z,2.13
2018-11-12T10:44:38.153Z,1.83
2018-11-12T10:47:05.310Z,1.60
2018-11-12T10:49:32.491Z,1.83
2018-11-12T10:51:59.712Z,1.67
2018-11-12T10:54:27.104Z,1.90
2018-11-12T10:56:54.239Z,1.83
2018-11-12T10:59:21.434Z,1.90
2018-11-12T11:01:53.182Z,1.53
2018-11-12T11:04:22.566Z,1.53
2018-11-12T11:06:49.750Z,2.00
2018-11-12T11:09:16.927Z,2.07
2018-11-12T11:11:44.110Z,1.40
2018-11-12T11:14:11.487Z,2.07
2018-11-12T11:16:38.672Z,2.10
2018-11-12T11:19:06.066Z,2.40
2018-11-12T11:21:33.254Z,1.80
2018-11-12T11:24:00.460Z,1.77
2018-11-12T11:26:27.619Z,1.60
2018-11-12T11:28:54.806Z,1.70
2018-11-12T11:31:21.995Z,1.57
2018-11-12T11:33:49.158Z,1.60
2018-11-12T11:36:16.375Z,1.87
2018-11-12T11:38:43.783Z,1.80
2018-11-12T11:41:11.102Z,1.70
2018-11-12T11:43:38.431Z,1.80
2018-11-12T11:46:05.603Z,1.63
2018-11-12T11:48:32.763Z,2.33
2018-11-12T11:50:59.958Z,1.60
2018-11-12T11:53:27.141Z,1.80
2018-11-12T11:55:54.293Z,1.63
2018-11-12T11:58:21.494Z,1.67
2018-11-12T12:00:48.686Z,1.40
2018-11-12T12:03:15.844Z,2.37
2018-11-12T12:05:43.032Z,1.50
2018-11-12T12:08:10.189Z,2.03
2018-11-12T12:10:37.383Z,1.97
2018-11-12T12:13:04.562Z,1.50
2018-11-12T12:15:31.731Z,1.87
2018-11-12T12:17:58.919Z,1.80
2018-11-12T12:20:26.670Z,1.87
2018-11-12T12:22:54.255Z,1.90
2018-11-12T12:25:21.458Z,1.90
2018-11-12T12:27:49.082Z,1.80
2018-11-12T12:30:17.748Z,2.03
2018-11-12T12:32:45.977Z,1.67
2018-11-12T12:35:13.583Z,1.90
2018-11-12T12:37:41.397Z,2.00
2018-11-12T12:40:09.415Z,1.90
2018-11-12T12:42:36.814Z,2.47
2018-11-12T12:45:04.171Z,1.67
2018-11-12T12:47:31.203Z,2.00
2018-11-12T12:49:58.610Z,2.23
2018-11-12T12:52:26.095Z,2.00
2018-11-12T12:54:53.306Z,1.80
2018-11-12T12:57:20.472Z,2.30
2018-11-12T12:59:47.655Z,2.27
2018-11-12T13:02:15.602Z,2.00
2018-11-12T13:04:42.858Z,2.00
2018-11-12T13:07:09.986Z,1.90
2018-11-12T13:09:38.295Z,1.90
2018-11-12T13:12:05.453Z,2.00
2018-11-12T13:14:33.077Z,2.20
2018-11-12T13:17:00.640Z,2.10
2018-11-12T13:19:28.008Z,1.73
2018-11-12T13:21:55.194Z,2.00
2018-11-12T13:24:22.387Z,1.87
2018-11-12T13:26:49.585Z,2.10
2018-11-12T13:29:16.768Z,1.97
2018-11-12T13:31:43.951Z,2.20
2018-11-12T13:34:11.135Z,2.20
2018-11-12T13:36:38.596Z,1.77
2018-11-12T13:39:08.155Z,1.83
2018-11-12T13:41:35.376Z,2.13
2018-11-12T13:44:02.902Z,2.20
2018-11-12T13:46:35.853Z,2.03
2018-11-12T13:49:03.089Z,1.93
2018-11-12T13:51:30.291Z,2.13
2018-11-12T13:53:57.466Z,2.40
2018-11-12T13:56:24.614Z,1.80
2018-11-12T13:58:51.795Z,2.30
2018-11-12T14:01:19.315Z,2.07
2018-11-12T14:03:46.543Z,1.90
2018-11-12T14:06:13.695Z,2.40
2018-11-12T14:08:40.871Z,2.13
2018-11-12T14:11:08.030Z,1.80
2018-11-12T14:13:35.227Z,2.00
2018-11-12T14:16:02.441Z,1.97
2018-11-12T14:18:29.648Z,1.90
2018-11-12T14:20:56.882Z,2.13
2018-11-12T14:23:24.351Z,2.23
2018-11-12T14:25:52.043Z,2.50
2018-11-12T14:28:19.352Z,2.07
2018-11-12T14:30:46.443Z,2.60
2018-11-12T14:33:13.653Z,2.10
2018-11-12T14:35:40.985Z,2.67
2018-11-12T14:38:07.998Z,2.33
2018-11-12T14:40:35.187Z,2.40
2018-11-12T14:43:02.500Z,2.30
2018-11-12T14:45:29.762Z,2.70
2018-11-12T14:47:57.037Z,2.53
2018-11-12T14:50:24.906Z,2.50
2018-11-12T14:52:52.086Z,2.20
2018-11-12T14:55:19.291Z,2.20
2018-11-12T14:57:46.442Z,2.40
2018-11-12T15:00:18.338Z,2.10
2018-11-12T15:02:45.530Z,2.10
2018-11-12T15:05:13.130Z,2.50
2018-11-12T15:07:40.314Z,2.77
2018-11-12T15:10:08.099Z,2.67
2018-11-12T15:12:35.310Z,2.10
2018-11-12T15:15:02.557Z,2.63
2018-11-12T15:17:29.666Z,2.13
2018-11-12T15:19:56.882Z,2.77
2018-11-12T15:22:24.062Z,2.87
2018-11-12T15:24:51.245Z,2.40
2018-11-12T15:27:18.418Z,2.13
2018-11-12T15:29:45.612Z,2.80
2018-11-12T15:32:12.768Z,2.40
2018-11-12T15:34:40.606Z,2.20
2018-11-12T15:37:07.979Z,2.60
2018-11-12T15:39:34.967Z,2.30
2018-11-12T15:42:02.232Z,2.53
2018-11-12T15:44:29.398Z,2.43
2018-11-12T15:46:56.570Z,2.33
2018-11-12T15:49:23.734Z,2.30
2018-11-12T15:51:50.925Z,2.07
2018-11-12T15:54:18.075Z,2.13
2018-11-12T15:56:45.291Z,2.73
2018-11-12T15:59:12.475Z,2.30
2018-11-12T16:01:39.641Z,2.50
2018-11-12T16:04:06.833Z,2.30
2018-11-12T16:06:34.008Z,2.33
2018-11-12T16:09:01.185Z,2.90
2018-11-12T16:11:28.337Z,3.20
2018-11-12T16:13:55.520Z,3.20
2018-11-12T16:16:22.678Z,3.63
2018-11-12T16:18:49.870Z,3.80
2018-11-12T16:21:17.035Z,4.03
2018-11-12T16:23:44.191Z,4.50
2018-11-12T16:26:11.381Z,3.30
2018-11-12T16:28:38.527Z,2.83
2018-11-12T16:31:05.896Z,2.77
2018-11-12T16:33:33.066Z,3.00
2018-11-12T16:36:00.255Z,1.97
2018-11-12T16:38:27.434Z,2.33
2018-11-12T16:40:54.603Z,2.73
2018-11-12T16:43:21.791Z,2.33
2018-11-12T16:45:49.044Z,2.47
2018-11-12T16:48:16.178Z,2.50
2018-11-12T16:50:43.346Z,2.63
2018-11-12T16:53:10.522Z,2.70
2018-11-12T16:55:37.683Z,3.20
2018-11-12T16:58:04.915Z,2.83
2018-11-12T17:00:32.067Z,2.20
2018-11-12T17:02:59.259Z,2.87
2018-11-12T17:05:26.437Z,2.50
2018-11-12T17:07:53.624Z,2.30
2018-11-12T17:10:22.057Z,2.90
2018-11-12T17:12:49.518Z,2.33
2018-11-12T17:15:16.971Z,2.37
2018-11-12T17:17:44.372Z,2.60
2018-11-12T17:20:13.632Z,2.57
2018-11-12T17:22:40.779Z,2.60
2018-11-12T17:25:08.926Z,2.40
2018-11-12T17:27:36.062Z,2.80
2018-11-12T17:30:06.212Z,2.33
2018-11-12T17:32:33.382Z,2.90
2018-11-12T17:35:00.546Z,2.67
2018-11-12T17:37:27.967Z,2.43
2018-11-12T17:39:55.179Z,2.87
2018-11-12T17:42:22.348Z,3.40
2018-11-12T17:44:49.502Z,2.80
2018-11-12T17:47:16.702Z,2.43
2018-11-12T17:49:44.070Z,2.57
2018-11-12T17:52:11.243Z,2.40
2018-11-12T17:54:38.414Z,2.13
2018-11-12T17:57:05.624Z,2.60
2018-11-12T17:59:32.807Z,2.97
2018-11-12T18:01:59.962Z,2.40
2018-11-12T18:04:27.143Z,2.50
2018-11-12T18:06:54.342Z,2.03
2018-11-12T18:09:21.490Z,2.60
2018-11-12T18:11:48.650Z,2.00
2018-11-12T18:14:15.842Z,1.60
2018-11-12T18:16:43.003Z,1.93
2018-11-12T18:19:10.175Z,1.90
2018-11-12T18:21:37.409Z,2.30
2018-11-12T18:24:04.986Z,1.87
2018-11-12T18:26:32.175Z,2.30
2018-11-12T18:28:59.369Z,2.03
2018-11-12T18:31:26.659Z,2.63
2018-11-12T18:33:53.720Z,2.03
2018-11-12T18:36:20.904Z,2.47
2018-11-12T18:38:48.096Z,1.90
2018-11-12T18:41:15.305Z,2.07
2018-11-12T18:43:42.566Z,1.97
2018-11-12T18:46:09.677Z,1.70
2018-11-12T18:48:36.864Z,2.00
2018-11-12T18:51:04.090Z,2.00
2018-11-12T18:53:31.271Z,1.80
2018-11-12T18:55:58.483Z,1.90
2018-11-12T18:58:25.660Z,2.20
2018-11-12T19:00:52.815Z,1.90
2018-11-12T19:03:20.007Z,2.10
2018-11-12T19:05:48.295Z,1.87
2018-11-12T19:08:15.471Z,2.07
2018-11-12T19:10:44.309Z,1.83
2018-11-12T19:13:11.514Z,2.10
2018-11-12T19:15:39.078Z,1.93
2018-11-12T19:18:07.427Z,2.30
2018-11-12T19:20:34.710Z,2.30
2018-11-12T19:23:02.244Z,2.40
2018-11-12T19:25:29.426Z,1.57
2018-11-12T19:27:56.613Z,1.47
2018-11-12T19:30:25.098Z,2.30
2018-11-12T19:32:52.289Z,1.73
2018-11-12T19:35:20.856Z,1.90
2018-11-12T19:37:48.023Z,2.10
2018-11-12T19:40:17.430Z,2.23
2018-11-12T19:42:45.371Z,2.10
2018-11-12T19:45:13.222Z,2.33
2018-11-12T19:47:40.399Z,2.50
2018-11-12T19:50:08.577Z,2.63
2018-11-12T19:52:35.726Z,2.70
2018-11-12T19:55:02.932Z,2.40
2018-11-12T19:57:30.085Z,2.80
2018-11-12T19:59:57.271Z,3.00
2018-11-12T20:02:24.439Z,3.13
2018-11-12T20:04:51.607Z,3.00
2018-11-12T20:07:18.804Z,2.50
2018-11-12T20:09:45.991Z,2.90
2018-11-12T20:12:13.138Z,2.87
2018-11-12T20:14:40.328Z,2.83
2018-11-12T20:17:07.533Z,3.30
2018-11-12T20:19:34.690Z,3.20
2018-11-12T20:22:02.627Z,2.80
2018-11-12T20:24:29.794Z,3.40
2018-11-12T20:26:56.972Z,3.90
2018-11-12T20:29:24.158Z,3.73
2018-11-12T20:31:51.352Z,3.43
2018-11-12T20:34:18.640Z,3.30
2018-11-12T20:36:45.722Z,3.50
2018-11-12T20:39:12.910Z,2.93
2018-11-12T20:41:40.234Z,3.60
2018-11-12T20:44:07.621Z,3.60
2018-11-12T20:46:34.807Z,3.00
2018-11-12T20:49:01.999Z,2.90
2018-11-12T20:51:29.189Z,3.03
2018-11-12T20:53:56.375Z,3.13
2018-11-12T20:56:23.538Z,3.60
2018-11-12T20:58:50.725Z,3.50
2018-11-12T21:01:17.887Z,2.67
2018-11-12T21:03:45.071Z,3.83
2018-11-12T21:06:12.249Z,3.30
2018-11-12T21:08:39.437Z,3.23
2018-11-12T21:11:06.614Z,3.50
2018-11-12T21:13:33.803Z,3.43
2018-11-12T21:16:01.540Z,3.00
2018-11-12T21:18:28.711Z,3.50
2018-11-12T21:20:55.871Z,3.40
2018-11-12T21:23:23.129Z,3.10
2018-11-12T21:25:50.247Z,2.80
2018-11-12T21:28:17.411Z,2.77
2018-11-12T21:30:44.591Z,3.00
2018-11-12T21:33:11.755Z,2.60
2018-11-12T21:35:38.918Z,2.07
2018-11-12T21:38:06.099Z,2.70
2018-11-12T21:40:33.280Z,2.43
2018-11-12T21:43:00.522Z,2.67
2018-11-12T21:45:29.050Z,2.23
2018-11-12T21:47:56.309Z,2.60
2018-11-12T21:50:23.664Z,2.80
2018-11-12T21:52:50.949Z,2.23
2018-11-12T21:55:18.125Z,2.90
2018-11-12T21:57:45.627Z,2.60
2018-11-12T22:00:15.346Z,2.50
2018-11-12T22:02:42.630Z,2.40
2018-11-12T22:05:09.797Z,2.50
2018-11-12T22:07:36.980Z,2.33
2018-11-12T22:10:04.759Z,2.20
2018-11-12T22:12:31.945Z,2.07
2018-11-12T22:14:59.132Z,3.07
2018-11-12T22:17:26.285Z,2.40
2018-11-12T22:19:53.529Z,2.40
2018-11-12T22:22:20.632Z,2.33
2018-11-12T22:24:47.823Z,2.67
2018-11-12T22:27:15.014Z,2.73
2018-11-12T22:29:42.191Z,2.70
2018-11-12T22:32:09.376Z,3.53
2018-11-12T22:34:36.552Z,2.93
2018-11-12T22:37:03.714Z,2.90
2018-11-12T22:39:31.082Z,2.63
2018-11-12T22:41:58.263Z,2.60
2018-11-12T22:44:25.465Z,3.63
2018-11-12T22:46:52.606Z,3.07
2018-11-12T22:49:19.819Z,3.00
2018-11-12T22:51:46.996Z,3.67
2018-11-12T22:54:14.151Z,3.03
2018-11-12T22:56:41.339Z,3.03
2018-11-12T22:59:08.547Z,2.90
2018-11-12T23:01:35.702Z,2.63
2018-11-12T23:04:02.871Z,4.43
2018-11-12T23:06:30.410Z,3.10
2018-11-12T23:08:57.591Z,2.73
2018-11-12T23:11:24.791Z,2.93
2018-11-12T23:13:51.950Z,3.20
2018-11-12T23:16:19.154Z,4.17
2018-11-12T23:18:46.334Z,2.90
2018-11-12T23:21:13.518Z,4.10
2018-11-12T23:23:40.698Z,3.23
2018-11-12T23:26:07.891Z,3.40
2018-11-12T23:28:35.078Z,3.43
2018-11-12T23:31:03.071Z,3.00
2018-11-12T23:33:30.239Z,3.00
2018-11-12T23:35:57.431Z,2.70
2018-11-12T23:38:24.599Z,2.20
2018-11-12T23:40:51.795Z,2.37
2018-11-12T23:43:18.974Z,2.77
2018-11-12T23:45:46.136Z,3.37
2018-11-12T23:48:13.331Z,2.60
2018-11-12T23:50:40.510Z,2.60
2018-11-12T23:53:07.690Z,2.30
2018-11-12T23:55:34.863Z,2.90
2018-11-12T23:58:02.037Z,2.80
